Time;durP1;ratioP1;P1;durP2;ratioP2;P2;SDS_P1;SDS_P2;PMS_P1;PMS_P2;Temp;Humidity;BMP_temperature;BMP_pressure;BME280_temperature;BME280_humidity;BME280_pressure;Samples;Min_cycle;Max_cycle;Signal;HPM_P1;HPM_P2
2023/04/07 00:01:39;;;;;;;3.30;1.35;;;2.70;99.90;;;;;;5031665;28;20045;-76
2023/04/07 00:04:06;;;;;;;3.47;1.65;;;2.70;99.90;;;;;;5044638;28;20059;-77
2023/04/07 00:06:35;;;;;;;3.45;1.20;;;2.60;99.90;;;;;;5047577;28;20505;-77
2023/04/07 00:09:03;;;;;;;1.63;1.20;;;2.60;99.90;;;;;;5043036;28;20061;-77
2023/04/07 00:11:30;;;;;;;2.72;1.25;;;2.60;99.90;;;;;;5026136;28;20044;-82
2023/04/07 00:13:58;;;;;;;1.92;1.38;;;2.60;99.90;;;;;;5040413;28;20049;-78
2023/04/07 00:16:26;;;;;;;5.07;1.42;;;2.50;99.90;;;;;;5041846;28;20049;-75
2023/04/07 00:18:53;;;;;;;2.13;1.70;;;2.50;99.90;;;;;;5030873;28;20053;-77
2023/04/07 00:21:21;;;;;;;1.92;1.23;;;2.50;99.90;;;;;;5028048;28;20060;-77
2023/04/07 00:23:49;;;;;;;4.95;1.85;;;2.60;99.90;;;;;;5037100;28;20047;-76
2023/04/07 00:26:17;;;;;;;3.90;1.50;;;2.60;99.90;;;;;;5048744;28;20368;-76
2023/04/07 00:28:45;;;;;;;2.40;1.60;;;2.60;99.90;;;;;;5048576;28;20056;-76
2023/04/07 00:31:13;;;;;;;3.13;1.60;;;2.50;99.90;;;;;;5046567;28;20261;-76
2023/04/07 00:33:40;;;;;;;5.30;2.17;;;2.50;99.90;;;;;;5041329;28;20049;-76
2023/04/07 00:36:08;;;;;;;2.13;1.50;;;2.50;99.90;;;;;;5012284;28;20506;-76
2023/04/07 00:38:36;;;;;;;4.95;1.80;;;2.50;99.90;;;;;;5029359;28;20058;-77
2023/04/07 00:41:05;;;;;;;4.53;1.40;;;2.50;99.90;;;;;;5031973;28;20071;-77
2023/04/07 00:43:33;;;;;;;3.55;2.20;;;2.50;99.90;;;;;;5048066;28;20051;-78
2023/04/07 00:46:00;;;;;;;3.33;1.85;;;2.50;99.90;;;;;;5052041;28;20155;-77
2023/04/07 00:48:29;;;;;;;8.23;2.40;;;2.50;99.90;;;;;;5034927;28;20045;-77
2023/04/07 00:50:57;;;;;;;6.55;2.42;;;2.40;99.90;;;;;;5041335;28;20049;-77
2023/04/07 00:53:24;;;;;;;4.75;2.40;;;2.40;99.90;;;;;;5052671;28;20106;-77
2023/04/07 00:55:52;;;;;;;5.18;2.15;;;2.30;99.90;;;;;;5053749;28;20439;-77
2023/04/07 00:58:21;;;;;;;3.92;1.95;;;2.30;99.90;;;;;;5052498;28;20045;-76
2023/04/07 01:00:57;;;;;;;9.90;2.15;;;2.20;99.90;;;;;;5050175;28;20421;-77
2023/04/07 01:03:31;;;;;;;8.45;2.47;;;2.20;99.90;;;;;;5036003;28;20053;-77
2023/04/07 01:06:02;;;;;;;14.95;2.72;;;2.10;99.90;;;;;;5037300;28;20054;-77
2023/04/07 01:08:43;;;;;;;18.35;3.95;;;2.00;99.90;;;;;;5035913;28;20047;-76
2023/04/07 01:11:20;;;;;;;11.68;2.55;;;2.00;99.90;;;;;;5035862;28;20080;-77
2023/04/07 01:13:55;;;;;;;13.32;3.25;;;1.90;99.90;;;;;;5051817;28;20421;-76
2023/04/07 01:16:43;;;;;;;10.02;2.97;;;1.80;99.90;;;;;;5049319;28;20424;-77
2023/04/07 01:19:32;;;;;;;8.15;2.70;;;1.70;99.90;;;;;;5027786;28;20053;-77
2023/04/07 01:22:01;;;;;;;9.05;2.85;;;1.70;99.90;;;;;;5036248;28;20115;-77
2023/04/07 01:24:50;;;;;;;12.88;3.15;;;1.60;99.90;;;;;;5040596;28;20509;-77
2023/04/07 01:27:30;;;;;;;9.35;3.38;;;1.60;99.90;;;;;;5052208;28;20314;-76
2023/04/07 01:30:01;;;;;;;10.25;3.17;;;1.60;99.90;;;;;;5022449;28;20513;-76
2023/04/07 01:32:32;;;;;;;9.77;2.80;;;1.50;99.90;;;;;;5015784;28;20049;-76
2023/04/07 01:35:00;;;;;;;6.75;3.08;;;1.50;99.90;;;;;;5031804;28;20525;-77
2023/04/07 01:37:29;;;;;;;9.85;3.58;;;1.40;99.90;;;;;;5067515;28;20562;-78
2023/04/07 01:39:57;;;;;;;11.30;3.00;;;1.40;99.90;;;;;;5049138;28;20524;-76
2023/04/07 01:42:27;;;;;;;9.63;3.67;;;1.30;99.90;;;;;;5035044;28;20118;-77
2023/04/07 01:44:57;;;;;;;9.60;4.07;;;1.30;99.90;;;;;;5044559;28;20033;-77
2023/04/07 01:47:29;;;;;;;16.65;4.00;;;1.30;99.90;;;;;;5052140;28;20053;-77
2023/04/07 01:49:57;;;;;;;14.35;4.10;;;1.20;99.90;;;;;;5038817;28;20541;-77
2023/04/07 01:52:26;;;;;;;12.93;3.95;;;1.20;99.90;;;;;;5051552;28;20041;-76
2023/04/07 01:54:56;;;;;;;16.60;4.07;;;1.10;99.90;;;;;;5050595;28;20052;-76
2023/04/07 01:57:24;;;;;;;21.30;4.82;;;1.10;99.90;;;;;;5051061;28;20118;-76
2023/04/07 01:59:58;;;;;;;13.68;4.20;;;1.10;99.90;;;;;;5021975;28;20148;-75
2023/04/07 02:02:29;;;;;;;15.07;4.38;;;1.00;99.90;;;;;;5032463;28;20049;-77
2023/04/07 02:05:02;;;;;;;15.02;3.75;;;1.00;99.90;;;;;;5038725;28;20588;-76
2023/04/07 02:07:35;;;;;;;24.08;4.22;;;0.90;99.90;;;;;;5036173;28;20519;-76
2023/04/07 02:10:06;;;;;;;11.88;3.40;;;0.90;99.90;;;;;;5048559;28;20089;-76
2023/04/07 02:12:35;;;;;;;10.73;3.58;;;0.80;99.90;;;;;;5048849;28;20421;-77
2023/04/07 02:15:13;;;;;;;17.80;4.13;;;0.80;99.90;;;;;;5050101;28;20049;-77
2023/04/07 02:18:50;;;;;;;;;;;;;;;;;;;;;
2023/04/07 02:21:22;;;;;;;9.45;3.38;;;0.80;99.90;;;;;;5034412;28;20049;-76
2023/04/07 02:23:50;;;;;;;9.18;3.55;;;0.70;99.90;;;;;;5045629;28;20056;-77
2023/04/07 02:26:18;;;;;;;9.02;3.33;;;0.70;99.90;;;;;;5032548;28;20052;-76
2023/04/07 02:28:45;;;;;;;8.75;3.58;;;0.60;99.90;;;;;;5049663;28;20049;-76
2023/04/07 02:31:14;;;;;;;17.63;3.75;;;0.60;99.90;;;;;;5049112;28;20135;-76
2023/04/07 02:33:41;;;;;;;11.48;3.35;;;0.60;99.90;;;;;;5030148;28;20487;-77
2023/04/07 02:36:09;;;;;;;10.63;2.85;;;0.60;99.90;;;;;;5043397;28;20136;-76
2023/04/07 02:38:36;;;;;;;9.85;3.30;;;0.60;99.90;;;;;;5030221;28;20428;-75
2023/04/07 02:41:05;;;;;;;12.27;3.08;;;0.60;99.90;;;;;;5033486;28;20417;-75
2023/04/07 02:43:32;;;;;;;11.82;3.53;;;0.60;99.90;;;;;;5032004;28;20513;-75
2023/04/07 02:46:00;;;;;;;16.33;3.83;;;0.60;99.90;;;;;;5028809;28;20045;-75
2023/04/07 02:48:29;;;;;;;11.15;3.63;;;0.60;99.90;;;;;;5045065;28;20080;-75
2023/04/07 02:50:56;;;;;;;6.28;2.42;;;0.60;99.90;;;;;;5034969;28;20476;-76
2023/04/07 02:53:24;;;;;;;15.00;3.40;;;0.70;99.90;;;;;;5049734;28;20056;-76
2023/04/07 02:55:51;;;;;;;14.10;3.22;;;0.80;99.90;;;;;;5049264;28;20055;-76
2023/04/07 02:58:19;;;;;;;7.65;2.63;;;0.80;99.90;;;;;;5048472;28;20059;-76
2023/04/07 03:00:48;;;;;;;12.20;2.97;;;0.80;99.90;;;;;;5030549;28;20049;-76
2023/04/07 03:03:20;;;;;;;13.35;2.63;;;0.80;99.90;;;;;;5045842;28;20140;-77
2023/04/07 03:06:27;;;;;;;9.70;2.40;;;0.80;99.90;;;;;;5039086;28;20099;-75
2023/04/07 03:09:07;;;;;;;7.78;2.50;;;0.90;99.90;;;;;;5045037;28;20132;-75
2023/04/07 03:11:34;;;;;;;6.97;2.10;;;1.00;99.90;;;;;;5047478;28;20045;-76
2023/04/07 03:14:02;;;;;;;7.75;1.88;;;1.00;99.90;;;;;;5048703;28;20135;-77
2023/04/07 03:16:32;;;;;;;10.00;2.50;;;1.00;99.90;;;;;;5041561;28;20051;-76
2023/04/07 03:19:07;;;;;;;5.55;2.00;;;1.10;99.90;;;;;;5055960;28;20525;-76
2023/04/07 03:21:40;;;;;;;7.30;2.80;;;1.10;99.90;;;;;;5046971;28;20049;-76
2023/04/07 03:24:09;;;;;;;5.60;2.10;;;1.10;99.90;;;;;;5034138;28;20067;-76
2023/04/07 03:26:37;;;;;;;12.23;2.90;;;1.10;99.90;;;;;;5048331;28;20528;-75
2023/04/07 03:29:07;;;;;;;12.30;3.00;;;1.10;99.90;;;;;;5026563;28;20041;-75
2023/04/07 03:31:36;;;;;;;17.25;2.30;;;1.10;99.90;;;;;;5048292;28;20052;-79
2023/04/07 03:34:04;;;;;;;6.25;3.05;;;1.10;99.90;;;;;;5047253;28;20048;-76
2023/04/07 03:36:31;;;;;;;11.15;2.42;;;1.10;99.90;;;;;;5048084;28;20448;-77
2023/04/07 03:39:04;;;;;;;4.90;1.88;;;1.20;99.90;;;;;;5048005;28;20048;-76
2023/04/07 03:41:31;;;;;;;2.78;1.70;;;1.20;99.90;;;;;;5032255;28;20312;-77
2023/04/07 03:43:59;;;;;;;2.08;1.42;;;1.20;99.90;;;;;;5047540;28;20556;-77
2023/04/07 03:46:27;;;;;;;5.88;1.50;;;1.20;99.90;;;;;;5047253;28;20068;-77
2023/04/07 03:48:55;;;;;;;5.22;1.90;;;1.20;99.90;;;;;;5026004;28;20029;-77
2023/04/07 03:51:23;;;;;;;5.60;1.65;;;1.20;99.90;;;;;;5048332;28;20505;-77
2023/04/07 03:53:55;;;;;;;4.60;1.80;;;1.30;99.90;;;;;;5047203;28;20102;-79
2023/04/07 03:56:42;;;;;;;3.00;1.80;;;1.30;99.90;;;;;;5050007;28;20047;-77
2023/04/07 03:59:10;;;;;;;4.53;1.98;;;1.30;99.90;;;;;;5042212;28;20060;-77
2023/04/07 04:01:45;;;;;;;7.63;1.98;;;1.30;99.90;;;;;;5025480;28;20141;-77
2023/04/07 04:04:16;;;;;;;4.57;1.80;;;1.30;99.90;;;;;;5048756;28;20249;-77
2023/04/07 04:06:44;;;;;;;4.93;2.25;;;1.30;99.90;;;;;;5047380;28;20051;-76
2023/04/07 04:09:31;;;;;;;3.72;1.83;;;1.40;99.90;;;;;;5048929;28;20060;-75
2023/04/07 04:12:01;;;;;;;5.80;1.80;;;1.40;99.90;;;;;;5045756;28;20053;-76
2023/04/07 04:14:30;;;;;;;9.40;2.45;;;1.40;99.90;;;;;;5031539;28;20564;-76
2023/04/07 04:17:01;;;;;;;5.90;2.05;;;1.40;99.90;;;;;;5022783;28;20069;-75
2023/04/07 04:19:35;;;;;;;6.13;2.83;;;1.40;99.90;;;;;;5031057;28;20058;-76
2023/04/07 04:22:09;;;;;;;7.15;2.53;;;1.40;99.90;;;;;;5032085;28;20102;-76
2023/04/07 04:24:44;;;;;;;7.22;1.73;;;1.50;99.90;;;;;;5051637;28;20553;-77
2023/04/07 04:27:13;;;;;;;2.55;1.92;;;1.50;99.90;;;;;;5053216;28;20410;-77
2023/04/07 04:29:41;;;;;;;6.22;2.15;;;1.50;99.90;;;;;;5042486;28;20049;-77
2023/04/07 04:32:12;;;;;;;11.18;5.03;;;1.50;99.90;;;;;;5048020;28;20077;-77
2023/04/07 04:34:42;;;;;;;8.68;2.75;;;1.60;99.90;;;;;;5052492;28;20049;-77
2023/04/07 04:37:11;;;;;;;10.65;2.30;;;1.60;99.90;;;;;;5052407;28;20107;-76
2023/04/07 04:39:42;;;;;;;6.32;2.90;;;1.60;99.90;;;;;;5029467;28;20055;-77
2023/04/07 04:42:15;;;;;;;8.85;2.58;;;1.70;99.90;;;;;;5034665;28;20139;-78
2023/04/07 04:44:43;;;;;;;10.05;2.53;;;1.70;99.90;;;;;;5053180;28;20453;-77
2023/04/07 04:47:20;;;;;;;9.93;2.67;;;1.70;99.90;;;;;;5045712;28;20045;-78
2023/04/07 04:49:54;;;;;;;12.27;2.58;;;1.80;99.90;;;;;;5035356;28;20513;-77
2023/04/07 04:52:21;;;;;;;14.50;3.15;;;1.80;99.90;;;;;;5044117;28;20041;-77
2023/04/07 04:54:50;;;;;;;9.90;2.47;;;1.80;99.90;;;;;;5029250;28;20040;-77
2023/04/07 04:57:20;;;;;;;11.98;2.95;;;1.90;99.90;;;;;;5046115;28;20054;-78
2023/04/07 04:59:48;;;;;;;13.18;2.90;;;1.90;99.90;;;;;;5048570;28;20419;-77
2023/04/07 05:02:15;;;;;;;13.02;2.88;;;2.00;99.90;;;;;;5062167;28;20049;-77
2023/04/07 05:04:43;;;;;;;13.13;2.90;;;2.10;99.90;;;;;;5040129;28;20059;-78
2023/04/07 05:07:27;;;;;;;12.02;3.25;;;2.10;99.90;;;;;;5042804;28;20049;-77
2023/04/07 05:09:54;;;;;;;16.23;2.80;;;2.20;99.90;;;;;;5045580;28;20053;-77
2023/04/07 05:12:24;;;;;;;11.10;3.03;;;2.20;99.90;;;;;;5050710;28;20272;-77
2023/04/07 05:14:58;;;;;;;29.35;4.00;;;2.20;99.90;;;;;;5043214;28;20508;-77
2023/04/07 05:17:25;;;;;;;10.63;3.03;;;2.30;99.90;;;;;;5047117;28;20399;-77
2023/04/07 05:19:54;;;;;;;14.73;3.30;;;2.40;99.90;;;;;;5049284;28;20044;-77
2023/04/07 05:22:32;;;;;;;14.18;3.42;;;2.50;99.90;;;;;;5048722;28;20077;-77
2023/04/07 05:25:00;;;;;;;7.32;3.30;;;2.60;99.90;;;;;;5038718;28;20050;-78
2023/04/07 05:27:29;;;;;;;11.15;3.00;;;2.70;99.90;;;;;;5031151;28;20041;-79
2023/04/07 05:30:03;;;;;;;15.98;2.85;;;2.70;99.90;;;;;;5050778;28;20079;-78
2023/04/07 05:32:34;;;;;;;8.33;3.53;;;2.80;99.90;;;;;;5048259;28;20037;-78
2023/04/07 05:35:09;;;;;;;8.77;2.63;;;2.90;99.90;;;;;;5049326;28;20061;-80
2023/04/07 05:37:43;;;;;;;11.48;2.55;;;2.90;99.90;;;;;;5033360;28;20044;-80
2023/04/07 05:40:17;;;;;;;9.35;2.63;;;3.00;99.90;;;;;;5027559;28;20063;-81
2023/04/07 05:42:46;;;;;;;12.07;3.92;;;3.10;99.90;;;;;;5050952;28;20045;-78
2023/04/07 05:45:16;;;;;;;13.73;3.00;;;3.10;99.90;;;;;;5031097;28;20075;-77
2023/04/07 05:47:49;;;;;;;13.82;2.85;;;3.20;99.90;;;;;;5034527;28;20147;-81
2023/04/07 05:50:24;;;;;;;6.95;2.75;;;3.30;99.90;;;;;;5049279;28;20056;-78
2023/04/07 05:52:56;;;;;;;12.55;2.70;;;3.50;99.90;;;;;;5016731;28;20049;-82
2023/04/07 05:55:27;;;;;;;15.80;3.22;;;3.90;99.90;;;;;;5015331;28;20560;-77
2023/04/07 05:57:58;;;;;;;10.15;3.53;;;4.60;99.90;;;;;;5035641;28;20044;-79
2023/04/07 06:00:30;;;;;;;8.63;3.65;;;5.40;99.90;;;;;;5049514;28;20049;-78
2023/04/07 06:03:15;;;;;;;16.75;3.83;;;6.40;99.90;;;;;;5053403;28;20056;-81
2023/04/07 06:05:57;;;;;;;10.80;3.08;;;7.30;99.90;;;;;;5050163;28;20057;-80
2023/04/07 06:08:26;;;;;;;13.70;2.80;;;8.20;99.90;;;;;;5050059;28;20135;-79
2023/04/07 06:10:55;;;;;;;16.98;4.15;;;8.80;99.90;;;;;;5022846;28;20047;-79
2023/04/07 06:13:24;;;;;;;14.65;3.42;;;9.40;98.30;;;;;;5046947;28;20053;-81
2023/04/07 06:15:51;;;;;;;9.15;2.83;;;9.70;95.70;;;;;;5028149;28;20056;-75
2023/04/07 06:18:19;;;;;;;7.50;3.58;;;10.20;94.10;;;;;;5025160;28;20077;-77
2023/04/07 06:20:46;;;;;;;13.13;4.63;;;10.50;92.40;;;;;;5037885;28;20069;-76
2023/04/07 06:23:13;;;;;;;14.05;4.90;;;10.90;90.70;;;;;;5020832;28;20041;-79
2023/04/07 06:25:41;;;;;;;22.70;5.32;;;11.00;83.80;;;;;;5040195;28;20428;-78
2023/04/07 06:28:09;;;;;;;16.20;6.28;;;11.00;83.60;;;;;;5039483;28;20677;-77
2023/04/07 06:30:38;;;;;;;15.07;5.65;;;11.20;82.40;;;;;;5038483;28;20513;-78
2023/04/07 06:33:12;;;;;;;17.55;5.88;;;11.30;82.40;;;;;;5041914;28;20051;-82
2023/04/07 06:35:41;;;;;;;24.00;5.68;;;11.70;81.00;;;;;;5039514;28;20045;-81
2023/04/07 06:38:10;;;;;;;24.67;5.38;;;12.00;77.60;;;;;;5043295;28;20057;-82
2023/04/07 06:40:37;;;;;;;19.25;5.25;;;12.30;77.40;;;;;;5022536;28;20071;-82
2023/04/07 06:43:05;;;;;;;19.83;5.72;;;12.70;75.40;;;;;;5041382;28;20049;-80
2023/04/07 06:45:55;;;;;;;23.40;4.82;;;13.10;73.90;;;;;;5045053;28;20135;-81
2023/04/07 06:48:23;;;;;;;22.73;5.20;;;13.60;69.50;;;;;;5018357;28;20053;-83
2023/04/07 06:50:51;;;;;;;22.17;4.47;;;13.80;69.70;;;;;;5051472;28;20053;-81
2023/04/07 06:53:19;;;;;;;13.93;3.80;;;14.00;67.70;;;;;;5050376;28;20092;-82
2023/04/07 06:55:46;;;;;;;17.95;3.80;;;14.30;66.80;;;;;;5037008;28;20519;-81
2023/04/07 06:58:14;;;;;;;16.08;4.05;;;14.60;64.90;;;;;;5045412;28;20061;-81
2023/04/07 07:00:41;;;;;;;10.95;3.22;;;15.00;63.60;;;;;;5047939;28;20049;-78
2023/04/07 07:03:10;;;;;;;13.13;3.67;;;15.30;62.40;;;;;;5047159;28;20053;-79
2023/04/07 07:05:39;;;;;;;14.27;3.60;;;15.60;60.80;;;;;;5042556;28;20412;-80
2023/04/07 07:08:07;;;;;;;12.02;2.97;;;15.70;59.90;;;;;;5045405;28;20061;-78
2023/04/07 07:10:34;;;;;;;17.52;3.67;;;15.80;59.40;;;;;;5031115;28;20048;-80
2023/04/07 07:13:05;;;;;;;9.25;3.30;;;16.20;59.00;;;;;;5049828;28;20064;-84
2023/04/07 07:15:32;;;;;;;11.00;3.00;;;16.50;57.50;;;;;;5045172;28;20072;-84
2023/04/07 07:18:00;;;;;;;10.48;3.35;;;16.60;57.00;;;;;;5047365;28;20465;-84
2023/04/07 07:20:29;;;;;;;14.05;3.05;;;16.80;56.80;;;;;;5045522;28;20083;-83
2023/04/07 07:22:57;;;;;;;19.55;10.20;;;17.20;55.80;;;;;;5036242;28;20075;-86
2023/04/07 07:25:25;;;;;;;10.52;4.32;;;17.40;55.70;;;;;;5021100;28;20148;-84
2023/04/07 07:27:53;;;;;;;10.77;3.58;;;17.60;55.40;;;;;;5044094;28;20049;-82
2023/04/07 07:30:21;;;;;;;12.00;3.38;;;17.70;56.00;;;;;;5040307;28;20063;-81
2023/04/07 07:32:49;;;;;;;13.90;3.30;;;17.70;54.90;;;;;;5038502;28;20065;-81
2023/04/07 07:35:17;;;;;;;14.30;2.85;;;17.80;55.50;;;;;;5037922;28;20049;-82
2023/04/07 07:37:46;;;;;;;13.93;3.72;;;18.00;53.70;;;;;;5043593;28;20087;-82
2023/04/07 07:40:14;;;;;;;16.63;3.20;;;18.20;53.20;;;;;;5041563;28;20037;-81
2023/04/07 07:42:42;;;;;;;10.68;2.40;;;18.40;52.30;;;;;;5041658;28;20639;-79
2023/04/07 07:45:12;;;;;;;8.90;3.30;;;18.60;51.70;;;;;;5038448;28;20045;-80
2023/04/07 07:47:40;;;;;;;10.00;2.33;;;18.60;52.80;;;;;;5039095;28;20938;-80
2023/04/07 07:50:09;;;;;;;7.28;2.20;;;18.80;51.60;;;;;;5028170;28;20108;-80
2023/04/07 07:52:37;;;;;;;4.38;2.03;;;19.00;50.00;;;;;;5037822;28;20053;-83
2023/04/07 07:55:07;;;;;;;4.60;2.17;;;18.90;50.90;;;;;;5038276;28;20140;-83
2023/04/07 07:57:58;;;;;;;;;;;;;;;;;;;;;
2023/04/07 08:01:13;;;;;;;5.40;2.50;;;18.80;50.50;;;;;;4926068;28;21526;-83
2023/04/07 08:03:44;;;;;;;3.88;1.80;;;18.70;50.10;;;;;;5043642;28;20099;-83
2023/04/07 08:06:12;;;;;;;11.07;2.13;;;18.80;48.90;;;;;;5035387;28;20514;-81
2023/04/07 08:08:40;;;;;;;6.55;2.83;;;18.70;49.30;;;;;;5040524;28;20505;-81
2023/04/07 08:11:09;;;;;;;5.93;1.90;;;18.90;49.90;;;;;;5051339;28;20076;-80
2023/04/07 08:13:37;;;;;;;7.75;2.22;;;19.30;50.70;;;;;;5043508;28;20045;-82
2023/04/07 08:16:05;;;;;;;5.38;2.50;;;;;;;;;;5028956;28;20049;-77
2023/04/07 08:18:33;;;;;;;12.80;2.80;;;20.30;49.10;;;;;;5030636;28;23190;-79
2023/04/07 08:21:00;;;;;;;8.77;2.47;;;20.50;48.10;;;;;;5046764;28;20122;-78
2023/04/07 08:23:28;;;;;;;5.13;2.97;;;20.60;47.70;;;;;;5038179;28;21048;-79
2023/04/07 08:25:56;;;;;;;9.60;2.55;;;20.80;47.20;;;;;;5047500;28;20525;-79
2023/04/07 08:28:26;;;;;;;8.27;2.03;;;21.10;46.00;;;;;;5039221;28;20119;-79
2023/04/07 08:30:54;;;;;;;9.48;1.85;;;21.10;44.60;;;;;;5029227;28;20062;-78
2023/04/07 08:33:21;;;;;;;5.07;1.83;;;20.60;44.70;;;;;;5043733;28;20498;-79
2023/04/07 08:35:49;;;;;;;10.95;2.42;;;20.40;45.80;;;;;;5044752;28;20040;-78
2023/04/07 08:38:17;;;;;;;5.88;1.52;;;20.60;46.80;;;;;;5029217;28;20050;-77
2023/04/07 08:40:44;;;;;;;2.50;1.38;;;21.00;46.10;;;;;;5041611;28;20057;-79
2023/04/07 08:43:15;;;;;;;3.85;1.58;;;21.20;45.30;;;;;;5048438;28;20084;-77
2023/04/07 08:45:45;;;;;;;3.95;1.38;;;21.50;45.10;;;;;;5029113;28;20045;-77
2023/04/07 08:48:18;;;;;;;4.22;1.50;;;21.60;43.90;;;;;;5035573;28;20145;-78
2023/04/07 08:50:46;;;;;;;;;;;21.50;45.30;;;;;;5046312;28;20049;-78
2023/04/07 08:53:14;;;;;;;3.63;1.25;;;21.60;43.50;;;;;;5042637;28;19964;-78
2023/04/07 08:55:42;;;;;;;8.15;1.58;;;21.50;44.80;;;;;;5048150;28;20632;-77
2023/04/07 08:58:12;;;;;;;5.82;1.38;;;21.60;43.40;;;;;;5047007;28;20123;-78
2023/04/07 09:00:41;;;;;;;4.07;1.30;;;21.60;44.30;;;;;;5044459;28;20531;-78
2023/04/07 09:03:11;;;;;;;4.80;1.20;;;21.70;44.20;;;;;;5042148;28;20041;-81
2023/04/07 09:05:40;;;;;;;5.82;1.67;;;21.90;43.90;;;;;;5010795;28;20058;-80
2023/04/07 09:08:07;;;;;;;4.57;2.00;;;21.90;43.20;;;;;;5022582;28;20099;-77
2023/04/07 09:10:36;;;;;;;8.05;1.35;;;22.00;44.10;;;;;;5050823;28;20080;-78
2023/04/07 09:13:03;;;;;;;4.38;1.60;;;22.50;43.20;;;;;;5045862;28;20099;-78
2023/04/07 09:15:32;;;;;;;5.40;1.30;;;22.70;42.50;;;;;;5051985;28;20053;-78
2023/04/07 09:17:59;;;;;;;2.15;1.25;;;23.00;42.10;;;;;;5051138;28;20060;-77
2023/04/07 09:20:56;;;;;;;4.80;1.40;;;23.10;42.10;;;;;;5043808;28;20080;-79
2023/04/07 09:23:32;;;;;;;4.13;1.30;;;23.10;41.80;;;;;;5052256;28;20056;-77
2023/04/07 09:26:21;;;;;;;7.57;1.40;;;23.00;41.80;;;;;;5033900;28;20049;-77
2023/04/07 09:28:52;;;;;;;6.72;1.20;;;22.70;41.20;;;;;;5040558;28;20586;-77
2023/04/07 09:31:21;;;;;;;3.35;1.50;;;22.80;42.60;;;;;;5043612;28;20075;-76
2023/04/07 09:33:49;;;;;;;5.25;1.42;;;23.20;42.50;;;;;;5040619;28;20049;-77
2023/04/07 09:36:19;;;;;;;3.47;1.23;;;23.40;40.80;;;;;;5047490;28;20090;-76
2023/04/07 09:38:46;;;;;;;5.30;1.10;;;23.60;40.90;;;;;;5042861;28;20048;-76
2023/04/07 09:41:16;;;;;;;12.80;1.83;;;23.80;41.50;;;;;;5045353;28;20098;-77
2023/04/07 09:43:45;;;;;;;6.10;1.20;;;23.80;40.70;;;;;;5044873;28;20068;-75
2023/04/07 09:46:15;;;;;;;4.07;1.10;;;23.50;40.70;;;;;;5044253;28;20060;-76
2023/04/07 09:48:47;;;;;;;9.23;1.73;;;23.20;41.80;;;;;;5048199;28;20170;-76
2023/04/07 09:51:17;;;;;;;3.97;2.03;;;22.60;41.20;;;;;;5042294;28;20085;-77
2023/04/07 09:53:48;;;;;;;6.53;1.30;;;21.90;42.90;;;;;;5046610;28;20111;-78
2023/04/07 09:56:18;;;;;;;2.50;1.10;;;21.20;43.70;;;;;;5051257;28;20136;-78
2023/04/07 09:58:47;;;;;;;2.83;1.05;;;20.70;43.90;;;;;;5048405;28;20114;-79
2023/04/07 10:01:16;;;;;;;5.60;1.33;;;20.50;45.30;;;;;;5043087;28;20052;-78
2023/04/07 10:03:46;;;;;;;2.85;1.30;;;20.80;44.60;;;;;;5047152;28;20056;-79
2023/04/07 10:06:15;;;;;;;5.72;1.92;;;21.20;44.40;;;;;;5051115;28;20049;-79
2023/04/07 10:08:44;;;;;;;5.93;1.90;;;21.90;42.60;;;;;;5045024;28;20049;-78
2023/04/07 10:11:12;;;;;;;8.82;1.80;;;22.60;42.60;;;;;;5047188;28;20102;-82
2023/04/07 10:13:44;;;;;;;4.72;2.20;;;23.10;43.10;;;;;;5048013;28;20067;-82
2023/04/07 10:16:11;;;;;;;4.22;1.75;;;23.60;41.40;;;;;;5042751;28;20059;-80
2023/04/07 10:18:41;;;;;;;3.90;1.85;;;23.60;40.90;;;;;;5049007;28;20056;-81
2023/04/07 10:21:13;;;;;;;7.95;1.85;;;24.00;40.70;;;;;;5048427;28;20122;-80
2023/04/07 10:24:01;;;;;;;7.50;1.77;;;24.30;39.80;;;;;;5047421;28;20056;-80
2023/04/07 10:26:32;;;;;;;6.05;1.77;;;24.40;40.50;;;;;;5045273;28;20367;-77
2023/04/07 10:29:02;;;;;;;5.05;1.80;;;;;;;;;;5044869;28;20084;-81
2023/04/07 10:31:33;;;;;;;6.47;1.80;;;24.80;39.90;;;;;;5043867;28;20053;-81
2023/04/07 10:34:01;;;;;;;7.45;1.65;;;24.90;39.90;;;;;;5042206;28;20056;-78
2023/04/07 10:36:29;;;;;;;5.22;2.00;;;25.10;39.70;;;;;;5048476;28;20049;-79
2023/04/07 10:39:23;;;;;;;4.88;1.70;;;25.40;40.10;;;;;;5046025;28;20061;-79
2023/04/07 10:41:52;;;;;;;4.88;1.70;;;25.70;40.10;;;;;;5044825;28;20485;-79
2023/04/07 10:44:51;;;;;;;5.18;1.77;;;25.70;38.10;;;;;;5047843;28;20048;-79
2023/04/07 10:47:19;;;;;;;8.15;2.00;;;25.50;39.00;;;;;;5032894;28;20049;-77
2023/04/07 10:50:16;;;;;;;6.60;1.98;;;25.40;38.70;;;;;;5044788;28;20103;-78
2023/04/07 10:52:46;;;;;;;8.60;1.95;;;25.00;39.10;;;;;;5046794;28;20060;-78
2023/04/07 10:55:36;;;;;;;5.32;2.20;;;24.50;39.60;;;;;;5041805;28;20049;-79
2023/04/07 10:58:24;;;;;;;8.07;2.45;;;24.00;41.60;;;;;;5034148;28;20610;-79
2023/04/07 11:01:20;;;;;;;7.32;2.38;;;23.50;40.20;;;;;;5040186;28;20049;-80
2023/04/07 11:04:00;;;;;;;5.38;1.90;;;22.30;41.30;;;;;;5047974;28;20156;-79
2023/04/07 11:06:27;;;;;;;3.83;2.33;;;21.90;43.50;;;;;;5049863;28;20485;-79
2023/04/07 11:08:58;;;;;;;5.43;1.80;;;22.00;43.50;;;;;;5040912;28;20068;-78
2023/04/07 11:11:42;;;;;;;8.43;1.80;;;22.20;42.40;;;;;;5045637;28;20528;-76
2023/04/07 11:14:31;;;;;;;7.53;2.35;;;22.50;41.40;;;;;;5037302;28;20432;-79
2023/04/07 11:17:09;;;;;;;4.65;1.98;;;22.50;42.60;;;;;;5045902;28;20051;-78
2023/04/07 11:20:12;;;;;;;;;;;22.90;42.90;;;;;;5022333;28;20049;-79
2023/04/07 11:23:01;;;;;;;;;;;23.20;40.80;;;;;;5034597;28;19986;-81
2023/04/07 11:25:29;;;;;;;6.30;2.00;;;23.60;42.20;;;;;;5042188;28;20564;-82
2023/04/07 11:27:59;;;;;;;8.25;1.70;;;24.40;41.00;;;;;;5041236;28;20107;-78
2023/04/07 11:30:37;;;;;;;6.32;1.90;;;25.40;41.00;;;;;;5041305;28;20051;-81
2023/04/07 11:33:05;;;;;;;11.45;2.72;;;25.90;39.10;;;;;;5041226;28;20518;-78
2023/04/07 11:35:33;;;;;;;8.30;2.20;;;26.10;38.30;;;;;;5029529;28;20049;-78
2023/04/07 11:38:04;;;;;;;3.80;1.75;;;26.50;38.70;;;;;;5042296;28;20053;-81
2023/04/07 11:40:33;;;;;;;5.35;1.60;;;26.80;38.10;;;;;;5046452;28;20131;-77
2023/04/07 11:43:02;;;;;;;9.40;2.20;;;26.90;36.30;;;;;;5045789;28;20088;-77
2023/04/07 11:45:30;;;;;;;5.38;1.88;;;26.60;36.30;;;;;;5042739;28;20052;-77
2023/04/07 11:47:57;;;;;;;2.13;1.40;;;26.50;38.20;;;;;;5047612;28;20131;-78
2023/04/07 11:50:42;;;;;;;7.95;2.00;;;26.20;37.90;;;;;;5047354;28;20053;-77
2023/04/07 11:53:14;;;;;;;2.25;1.42;;;26.30;38.20;;;;;;5049242;28;20079;-78
2023/04/07 11:55:42;;;;;;;3.88;1.60;;;26.50;37.30;;;;;;5043403;28;20084;-77
2023/04/07 11:58:11;;;;;;;6.13;2.08;;;27.00;36.80;;;;;;5050163;28;20059;-77
2023/04/07 12:00:57;;;;;;;5.32;1.90;;;27.10;37.50;;;;;;5025316;28;20496;-77
2023/04/07 12:03:32;;;;;;;7.25;1.95;;;27.20;36.60;;;;;;5048295;28;20543;-79
2023/04/07 12:06:01;;;;;;;3.10;1.58;;;27.40;36.50;;;;;;5047087;28;20060;-77
2023/04/07 12:08:44;;;;;;;6.22;1.92;;;27.20;36.30;;;;;;5049870;28;20130;-79
2023/04/07 12:11:12;;;;;;;9.15;1.67;;;27.10;36.20;;;;;;5038200;28;20052;-76
2023/04/07 12:13:43;;;;;;;3.55;1.40;;;27.10;36.00;;;;;;5038883;28;20041;-77
2023/04/07 12:16:10;;;;;;;3.65;1.58;;;26.70;36.60;;;;;;5049889;28;20053;-80
2023/04/07 12:18:39;;;;;;;4.50;1.45;;;25.80;37.50;;;;;;5039132;28;21094;-80
2023/04/07 12:21:13;;;;;;;3.42;1.70;;;25.30;38.10;;;;;;5043121;28;20466;-77
2023/04/07 12:23:41;;;;;;;6.43;2.05;;;25.20;37.00;;;;;;5041986;28;20053;-77
2023/04/07 12:26:10;;;;;;;5.97;1.65;;;25.10;38.20;;;;;;5029674;28;20052;-76
2023/04/07 12:28:40;;;;;;;4.68;1.60;;;25.30;38.10;;;;;;5044890;28;20080;-81
2023/04/07 12:31:07;;;;;;;4.10;1.50;;;25.40;38.00;;;;;;5037151;28;20077;-78
2023/04/07 12:33:35;;;;;;;2.80;1.52;;;25.60;37.70;;;;;;5046252;28;20091;-78
2023/04/07 12:36:06;;;;;;;4.45;1.45;;;25.90;36.70;;;;;;5043677;28;20049;-78
2023/04/07 12:38:38;;;;;;;3.40;1.48;;;25.70;37.30;;;;;;5042480;28;20132;-77
2023/04/07 12:41:14;;;;;;;2.78;1.30;;;25.50;37.00;;;;;;5046503;28;20049;-83
2023/04/07 12:43:48;;;;;;;3.17;1.10;;;25.00;37.90;;;;;;5033010;28;20559;-81
2023/04/07 12:46:23;;;;;;;9.93;1.50;;;24.70;37.90;;;;;;5043444;28;20147;-82
2023/04/07 12:49:00;;;;;;;6.05;1.52;;;24.60;37.70;;;;;;5046576;28;20550;-81
2023/04/07 12:51:39;;;;;;;7.50;1.52;;;24.80;37.60;;;;;;5038632;28;20126;-84
2023/04/07 12:54:07;;;;;;;5.07;1.27;;;25.10;38.30;;;;;;5039484;28;20452;-78
2023/04/07 12:56:35;;;;;;;3.88;1.23;;;25.70;38.70;;;;;;5047482;28;20110;-80
2023/04/07 12:59:06;;;;;;;6.20;1.27;;;26.20;37.00;;;;;;5030588;28;20118;-82
2023/04/07 13:01:42;;;;;;;3.58;1.40;;;26.60;37.40;;;;;;5041724;28;20135;-87
2023/04/07 13:04:10;;;;;;;4.03;1.08;;;26.70;36.10;;;;;;5043057;28;20546;-80
2023/04/07 13:06:38;;;;;;;3.83;1.13;;;26.40;36.70;;;;;;5043964;28;20036;-79
2023/04/07 13:09:06;;;;;;;3.70;1.63;;;26.20;37.50;;;;;;5044984;28;20049;-80
2023/04/07 13:11:35;;;;;;;7.15;1.45;;;26.50;36.70;;;;;;5042823;28;20049;-80
2023/04/07 13:14:08;;;;;;;3.75;1.38;;;26.80;36.20;;;;;;5041729;28;20111;-80
2023/04/07 13:16:37;;;;;;;9.82;1.40;;;26.70;35.90;;;;;;5044500;28;20069;-80